sensor_id;sensor_type;location;lat;lon;timestamp;pressure;altitude;pressure_sealevel;temperature;humidity
8627;BME280;4351;51.422;6.794;2023-04-01T00:02:05;99040.41;;;9.82;100.00
8627;BME280;4351;51.422;6.794;2023-04-01T00:04:33;99033.00;;;9.74;100.00
8627;BME280;4351;51.422;6.794;2023-04-01T00:07:02;99053.03;;;9.81;100.00
8627;BME280;4351;51.422;6.794;2023-04-01T00:09:29;99050.88;;;9.96;100.00
8627;BME280;4351;51.422;6.794;2023-04-01T00:11:57;99044.66;;;9.96;100.00
8627;BME280;4351;51.422;6.794;2023-04-01T00:14:25;99047.72;;;9.91;100.00
8627;BME280;4351;51.422;6.794;2023-04-01T00:16:55;99030.13;;;9.87;100.00
8627;BME280;4351;51.422;6.794;2023-04-01T00:19:23;99035.72;;;9.95;100.00
8627;BME280;4351;51.422;6.794;2023-04-01T00:21:51;99024.25;;;9.82;100.00
8627;BME280;4351;51.422;6.794;2023-04-01T00:24:19;99026.19;;;9.91;100.00
8627;BME280;4351;51.422;6.794;2023-04-01T00:26:47;99038.25;;;9.97;100.00
8627;BME280;4351;51.422;6.794;2023-04-01T00:29:15;99042.16;;;9.83;100.00
8627;BME280;4351;51.422;6.794;2023-04-01T00:31:43;99061.25;;;9.80;100.00
8627;BME280;4351;51.422;6.794;2023-04-01T00:34:13;99093.72;;;9.99;100.00
8627;BME280;4351;51.422;6.794;2023-04-01T00:36:41;99085.34;;;9.81;100.00
8627;BME280;4351;51.422;6.794;2023-04-01T00:39:08;99095.00;;;9.84;100.00
8627;BME280;4351;51.422;6.794;2023-04-01T00:41:36;99115.28;;;9.99;100.00
8627;BME280;4351;51.422;6.794;2023-04-01T00:44:17;99131.47;;;9.88;100.00
8627;BME280;4351;51.422;6.794;2023-04-01T00:46:46;99168.94;;;9.91;100.00
8627;BME280;4351;51.422;6.794;2023-04-01T00:49:17;99181.78;;;9.87;100.00
8627;BME280;4351;51.422;6.794;2023-04-01T00:51:48;99201.16;;;9.70;100.00
8627;BME280;4351;51.422;6.794;2023-04-01T00:54:19;99249.75;;;9.80;100.00
8627;BME280;4351;51.422;6.794;2023-04-01T00:56:50;99292.84;;;9.80;96.77
8627;BME280;4351;51.422;6.794;2023-04-01T00:59:25;99347.66;;;9.78;92.78
8627;BME280;4351;51.422;6.794;2023-04-01T01:01:54;99392.97;;;9.73;90.62
8627;BME280;4351;51.422;6.794;2023-04-01T01:04:25;99435.44;;;9.81;87.57
8627;BME280;4351;51.422;6.794;2023-04-01T01:07:03;99438.50;;;9.76;86.42
8627;BME280;4351;51.422;6.794;2023-04-01T01:09:42;99465.19;;;9.80;85.21
8627;BME280;4351;51.422;6.794;2023-04-01T01:12:14;99476.47;;;9.73;84.50
8627;BME280;4351;51.422;6.794;2023-04-01T01:14:49;99498.59;;;9.77;82.75
8627;BME280;4351;51.422;6.794;2023-04-01T01:17:28;99518.06;;;9.69;82.43
8627;BME280;4351;51.422;6.794;2023-04-01T01:26:25;99548.81;;;9.78;77.20
8627;BME280;4351;51.422;6.794;2023-04-01T01:29:03;99534.84;;;9.73;78.57
8627;BME280;4351;51.422;6.794;2023-04-01T01:31:37;99521.72;;;9.68;79.90
8627;BME280;4351;51.422;6.794;2023-04-01T01:34:15;99519.53;;;9.73;80.24
8627;BME280;4351;51.422;6.794;2023-04-01T01:36:49;99497.88;;;9.75;80.91
8627;BME280;4351;51.422;6.794;2023-04-01T01:39:20;99495.56;;;9.82;80.25
8627;BME280;4351;51.422;6.794;2023-04-01T01:41:55;99467.16;;;9.77;82.84
8627;BME280;4351;51.422;6.794;2023-04-01T01:44:25;99437.78;;;9.86;84.69
8627;BME280;4351;51.422;6.794;2023-04-01T01:46:56;99375.34;;;9.81;88.98
8627;BME280;4351;51.422;6.794;2023-04-01T01:49:24;99359.81;;;9.84;91.07
8627;BME280;4351;51.422;6.794;2023-04-01T01:51:54;99306.66;;;9.75;95.30
8627;BME280;4351;51.422;6.794;2023-04-01T01:54:23;99264.53;;;9.85;97.98
8627;BME280;4351;51.422;6.794;2023-04-01T01:56:57;99208.34;;;9.81;100.00
8627;BME280;4351;51.422;6.794;2023-04-01T01:59:30;99163.34;;;9.83;100.00
8627;BME280;4351;51.422;6.794;2023-04-01T02:02:00;99138.97;;;9.84;100.00
8627;BME280;4351;51.422;6.794;2023-04-01T02:04:34;99120.63;;;9.78;100.00
8627;BME280;4351;51.422;6.794;2023-04-01T02:07:08;99120.09;;;9.84;100.00
8627;BME280;4351;51.422;6.794;2023-04-01T02:09:38;99101.16;;;9.74;100.00
8627;BME280;4351;51.422;6.794;2023-04-01T02:12:08;99116.72;;;9.71;100.00
8627;BME280;4351;51.422;6.794;2023-04-01T02:14:42;99147.56;;;9.78;100.00
8627;BME280;4351;51.422;6.794;2023-04-01T02:17:14;99158.94;;;9.70;100.00
8627;BME280;4351;51.422;6.794;2023-04-01T02:19:48;99180.25;;;9.62;100.00
8627;BME280;4351;51.422;6.794;2023-04-01T02:22:21;99215.75;;;9.67;100.00
8627;BME280;4351;51.422;6.794;2023-04-01T02:24:53;99268.84;;;9.76;100.00
8627;BME280;4351;51.422;6.794;2023-04-01T02:27:22;99289.69;;;9.63;100.00
8627;BME280;4351;51.422;6.794;2023-04-01T02:29:51;99325.13;;;9.57;99.38
8627;BME280;4351;51.422;6.794;2023-04-01T02:32:20;99369.22;;;9.67;95.90
8627;BME280;4351;51.422;6.794;2023-04-01T02:34:49;99410.09;;;9.72;93.19
8627;BME280;4351;51.422;6.794;2023-04-01T02:37:18;99450.38;;;9.74;91.17
8627;BME280;4351;51.422;6.794;2023-04-01T02:39:47;99488.94;;;9.74;88.01
8627;BME280;4351;51.422;6.794;2023-04-01T02:42:15;99523.78;;;9.64;85.61
8627;BME280;4351;51.422;6.794;2023-04-01T02:44:43;99584.41;;;9.70;81.75
8627;BME280;4351;51.422;6.794;2023-04-01T02:47:11;99626.97;;;9.65;78.09
8627;BME280;4351;51.422;6.794;2023-04-01T02:49:39;99699.31;;;9.70;73.26
8627;BME280;4351;51.422;6.794;2023-04-01T02:52:08;99756.47;;;9.49;71.79
8627;BME280;4351;51.422;6.794;2023-04-01T02:54:38;99859.97;;;9.58;66.45
8627;BME280;4351;51.422;6.794;2023-04-01T02:57:06;99965.75;;;9.73;62.59
8627;BME280;4351;51.422;6.794;2023-04-01T02:59:35;100073.97;;;9.52;61.08
8627;BME280;4351;51.422;6.794;2023-04-01T03:02:03;100218.66;;;9.63;57.53
8627;BME280;4351;51.422;6.794;2023-04-01T03:04:31;100331.38;;;9.54;54.58
8627;BME280;4351;51.422;6.794;2023-04-01T03:06:59;100427.09;;;9.75;52.03
8627;BME280;4351;51.422;6.794;2023-04-01T03:09:27;100498.94;;;9.60;51.00
8627;BME280;4351;51.422;6.794;2023-04-01T03:11:57;100570.13;;;9.70;49.46
8627;BME280;4351;51.422;6.794;2023-04-01T03:14:26;100646.28;;;9.74;48.31
8627;BME280;4351;51.422;6.794;2023-04-01T03:16:54;100692.16;;;9.56;47.78
8627;BME280;4351;51.422;6.794;2023-04-01T03:19:22;100743.16;;;9.75;46.94
8627;BME280;4351;51.422;6.794;2023-04-01T03:21:50;100764.78;;;9.58;46.75
8627;BME280;4351;51.422;6.794;2023-04-01T03:24:19;100808.16;;;9.69;46.21
8627;BME280;4351;51.422;6.794;2023-04-01T03:26:47;100838.66;;;9.86;45.76
8627;BME280;4351;51.422;6.794;2023-04-01T03:29:17;100831.88;;;9.78;45.79
8627;BME280;4351;51.422;6.794;2023-04-01T03:31:44;100849.00;;;9.77;45.63
8627;BME280;4351;51.422;6.794;2023-04-01T03:34:12;100861.41;;;9.64;45.64
8627;BME280;4351;51.422;6.794;2023-04-01T03:36:41;100909.84;;;9.82;45.23
8627;BME280;4351;51.422;6.794;2023-04-01T03:39:09;100913.91;;;9.73;45.28
8627;BME280;4351;51.422;6.794;2023-04-01T03:41:40;100915.38;;;9.62;45.37
8627;BME280;4351;51.422;6.794;2023-04-01T03:44:08;100953.06;;;9.80;45.01
8627;BME280;4351;51.422;6.794;2023-04-01T03:46:37;100958.44;;;9.80;45.03
8627;BME280;4351;51.422;6.794;2023-04-01T03:49:06;100958.16;;;9.69;45.08
8627;BME280;4351;51.422;6.794;2023-04-01T03:51:37;100961.72;;;9.69;45.04
8627;BME280;4351;51.422;6.794;2023-04-01T03:54:06;100971.63;;;9.69;45.00
8627;BME280;4351;51.422;6.794;2023-04-01T03:56:34;100983.41;;;9.66;44.99
8627;BME280;4351;51.422;6.794;2023-04-01T03:59:03;101011.06;;;9.70;44.81
8627;BME280;4351;51.422;6.794;2023-04-01T04:01:32;101028.50;;;9.62;44.89
8627;BME280;4351;51.422;6.794;2023-04-01T04:04:01;101054.47;;;9.63;44.68
8627;BME280;4351;51.422;6.794;2023-04-01T04:06:30;101080.25;;;9.69;44.60
8627;BME280;4351;51.422;6.794;2023-04-01T04:08:58;101104.56;;;9.68;44.57
8627;BME280;4351;51.422;6.794;2023-04-01T04:11:30;101122.06;;;9.76;44.47
8627;BME280;4351;51.422;6.794;2023-04-01T04:13:59;101116.94;;;9.72;44.50
8627;BME280;4351;51.422;6.794;2023-04-01T04:16:26;101117.00;;;9.70;44.53
8627;BME280;4351;51.422;6.794;2023-04-01T04:19:02;101114.88;;;9.77;44.56
8627;BME280;4351;51.422;6.794;2023-04-01T04:21:30;101105.28;;;9.71;44.66
8627;BME280;4351;51.422;6.794;2023-04-01T04:23:59;101103.84;;;9.64;44.72
8627;BME280;4351;51.422;6.794;2023-04-01T04:26:43;101126.50;;;9.60;44.72
8627;BME280;4351;51.422;6.794;2023-04-01T04:29:12;101141.56;;;9.64;44.66
8627;BME280;4351;51.422;6.794;2023-04-01T04:31:40;101162.81;;;9.70;44.58
8627;BME280;4351;51.422;6.794;2023-04-01T04:34:12;101178.66;;;9.76;44.57
8627;BME280;4351;51.422;6.794;2023-04-01T04:36:40;101178.81;;;9.73;44.61
8627;BME280;4351;51.422;6.794;2023-04-01T04:39:08;101178.84;;;9.91;44.52
8627;BME280;4351;51.422;6.794;2023-04-01T04:41:38;101165.03;;;9.80;44.68
8627;BME280;4351;51.422;6.794;2023-04-01T04:44:06;101167.88;;;9.76;44.75
8627;BME280;4351;51.422;6.794;2023-04-01T04:46:34;101170.91;;;9.88;44.70
8627;BME280;4351;51.422;6.794;2023-04-01T04:49:13;101170.75;;;9.91;44.75
8627;BME280;4351;51.422;6.794;2023-04-01T04:51:41;101131.38;;;9.88;44.92
8627;BME280;4351;51.422;6.794;2023-04-01T04:54:10;101107.44;;;9.82;45.20
8627;BME280;4351;51.422;6.794;2023-04-01T04:56:52;101091.97;;;9.86;45.39
8627;BME280;4351;51.422;6.794;2023-04-01T04:59:21;101101.94;;;10.02;45.41
8627;BME280;4351;51.422;6.794;2023-04-01T05:02:06;101066.94;;;9.84;45.77
8627;BME280;4351;51.422;6.794;2023-04-01T05:04:36;101065.91;;;9.86;45.87
8627;BME280;4351;51.422;6.794;2023-04-01T05:07:07;101075.47;;;9.74;45.97
8627;BME280;4351;51.422;6.794;2023-04-01T05:09:35;101100.22;;;9.65;45.98
8627;BME280;4351;51.422;6.794;2023-04-01T05:12:04;101132.47;;;9.66;45.93
8627;BME280;4351;51.422;6.794;2023-04-01T05:14:52;101191.59;;;9.87;45.67
8627;BME280;4351;51.422;6.794;2023-04-01T05:17:19;101202.75;;;9.80;45.72
8627;BME280;4351;51.422;6.794;2023-04-01T05:19:49;101225.25;;;9.78;45.65
8627;BME280;4351;51.422;6.794;2023-04-01T05:22:17;101256.88;;;9.75;45.62
8627;BME280;4351;51.422;6.794;2023-04-01T05:24:45;101275.59;;;9.78;45.58
8627;BME280;4351;51.422;6.794;2023-04-01T05:27:13;101278.44;;;9.75;45.60
8627;BME280;4351;51.422;6.794;2023-04-01T05:29:42;101292.13;;;9.70;45.63
8627;BME280;4351;51.422;6.794;2023-04-01T05:32:26;101292.63;;;9.78;45.53
8627;BME280;4351;51.422;6.794;2023-04-01T05:34:56;101309.44;;;9.84;45.49
8627;BME280;4351;51.422;6.794;2023-04-01T05:37:24;101292.28;;;9.67;45.71
8627;BME280;4351;51.422;6.794;2023-04-01T05:39:52;101307.41;;;9.70;45.67
8627;BME280;4351;51.422;6.794;2023-04-01T05:42:21;101326.06;;;9.74;45.65
8627;BME280;4351;51.422;6.794;2023-04-01T05:44:49;101329.84;;;9.70;45.69
8627;BME280;4351;51.422;6.794;2023-04-01T05:47:36;101335.72;;;9.78;45.64
8627;BME280;4351;51.422;6.794;2023-04-01T05:50:06;101344.63;;;9.81;45.77
8627;BME280;4351;51.422;6.794;2023-04-01T05:52:34;101337.88;;;9.72;45.92
8627;BME280;4351;51.422;6.794;2023-04-01T05:55:02;101346.16;;;9.86;45.86
8627;BME280;4351;51.422;6.794;2023-04-01T05:57:31;101338.78;;;9.90;45.92
8627;BME280;4351;51.422;6.794;2023-04-01T05:59:59;101316.88;;;9.78;46.15
8627;BME280;4351;51.422;6.794;2023-04-01T06:02:37;101303.38;;;9.61;46.43
8627;BME280;4351;51.422;6.794;2023-04-01T06:05:15;101337.41;;;9.62;46.39
8627;BME280;4351;51.422;6.794;2023-04-01T06:07:43;101354.38;;;9.64;46.42
8627;BME280;4351;51.422;6.794;2023-04-01T06:10:14;101373.63;;;9.56;46.55
8627;BME280;4351;51.422;6.794;2023-04-01T06:12:56;101422.16;;;9.54;47.01
8627;BME280;4351;51.422;6.794;2023-04-01T06:15:35;101473.88;;;9.63;46.99
8627;BME280;4351;51.422;6.794;2023-04-01T06:18:28;101516.31;;;9.58;47.36
8627;BME280;4351;51.422;6.794;2023-04-01T06:21:17;101558.88;;;9.70;47.12
8627;BME280;4351;51.422;6.794;2023-04-01T06:24:07;101580.16;;;9.56;47.35
8627;BME280;4351;51.422;6.794;2023-04-01T06:26:46;101624.75;;;9.63;47.29
8627;BME280;4351;51.422;6.794;2023-04-01T06:29:49;101664.09;;;9.67;47.26
8627;BME280;4351;51.422;6.794;2023-04-01T06:32:39;101672.19;;;9.67;47.27
8627;BME280;4351;51.422;6.794;2023-04-01T06:35:19;101667.97;;;9.60;47.36
8627;BME280;4351;51.422;6.794;2023-04-01T06:38:02;101701.41;;;9.76;47.25
8627;BME280;4351;51.422;6.794;2023-04-01T06:43:40;101718.28;;;9.59;47.55
8627;BME280;4351;51.422;6.794;2023-04-01T06:46:52;101720.78;;;9.64;47.76
8627;BME280;4351;51.422;6.794;2023-04-01T06:49:40;101734.25;;;9.64;47.85
8627;BME280;4351;51.422;6.794;2023-04-01T06:52:40;101751.38;;;9.63;48.00
8627;BME280;4351;51.422;6.794;2023-04-01T06:55:42;101783.81;;;9.60;48.17
8627;BME280;4351;51.422;6.794;2023-04-01T06:58:22;101835.13;;;9.57;48.49
8627;BME280;4351;51.422;6.794;2023-04-01T07:00:54;101868.06;;;9.65;48.47
8627;BME280;4351;51.422;6.794;2023-04-01T07:03:30;101906.22;;;9.76;48.35
8627;BME280;4351;51.422;6.794;2023-04-01T07:06:03;101953.81;;;9.77;48.37
8627;BME280;4351;51.422;6.794;2023-04-01T07:08:40;101982.81;;;9.71;48.60
8627;BME280;4351;51.422;6.794;2023-04-01T07:11:20;102014.81;;;9.80;48.60
8627;BME280;4351;51.422;6.794;2023-04-01T07:14:20;102044.06;;;9.91;48.66
8627;BME280;4351;51.422;6.794;2023-04-01T07:16:51;102057.56;;;9.89;48.85
8627;BME280;4351;51.422;6.794;2023-04-01T07:19:25;102044.50;;;9.78;49.23
8627;BME280;4351;51.422;6.794;2023-04-01T07:22:14;102028.22;;;9.82;49.47
8627;BME280;4351;51.422;6.794;2023-04-01T07:25:03;102018.97;;;9.89;49.69
8627;BME280;4351;51.422;6.794;2023-04-01T07:27:34;101993.13;;;9.83;50.29
8627;BME280;4351;51.422;6.794;2023-04-01T07:30:06;101982.06;;;9.91;50.63
8627;BME280;4351;51.422;6.794;2023-04-01T07:32:42;101977.84;;;9.84;51.34
8627;BME280;4351;51.422;6.794;2023-04-01T07:35:17;101935.84;;;9.78;51.96
8627;BME280;4351;51.422;6.794;2023-04-01T07:38:00;101917.00;;;9.76;52.54
8627;BME280;4351;51.422;6.794;2023-04-01T07:40:37;101937.41;;;9.84;52.88
8627;BME280;4351;51.422;6.794;2023-04-01T07:43:22;101941.31;;;9.75;53.47
8627;BME280;4351;51.422;6.794;2023-04-01T07:46:11;101981.41;;;10.08;52.94
8627;BME280;4351;51.422;6.794;2023-04-01T07:48:45;101981.41;;;10.08;53.48
8627;BME280;4351;51.422;6.794;2023-04-01T07:51:21;101956.41;;;10.05;53.99
8627;BME280;4351;51.422;6.794;2023-04-01T07:54:00;101952.44;;;10.14;54.17
8627;BME280;4351;51.422;6.794;2023-04-01T07:56:39;101920.56;;;10.01;55.15
8627;BME280;4351;51.422;6.794;2023-04-01T07:59:20;101888.78;;;10.09;55.58
8627;BME280;4351;51.422;6.794;2023-04-01T08:02:02;101872.66;;;10.08;56.39
8627;BME280;4351;51.422;6.794;2023-04-01T08:04:49;101841.47;;;10.02;57.30
8627;BME280;4351;51.422;6.794;2023-04-01T08:07:23;101828.59;;;10.09;57.75
8627;BME280;4351;51.422;6.794;2023-04-01T08:10:12;101804.56;;;10.03;58.71
8627;BME280;4351;51.422;6.794;2023-04-01T08:13:08;101808.91;;;10.07;59.12
8627;BME280;4351;51.422;6.794;2023-04-01T08:16:09;101787.56;;;10.00;59.82
8627;BME280;4351;51.422;6.794;2023-04-01T08:18:54;101798.97;;;10.07;59.97
8627;BME280;4351;51.422;6.794;2023-04-01T08:21:28;101790.84;;;10.09;60.45
8627;BME280;4351;51.422;6.794;2023-04-01T08:24:07;101810.59;;;10.09;61.08
8627;BME280;4351;51.422;6.794;2023-04-01T08:26:42;101786.19;;;10.12;61.60
8627;BME280;4351;51.422;6.794;2023-04-01T08:29:15;101782.50;;;10.15;61.95
8627;BME280;4351;51.422;6.794;2023-04-01T08:31:49;101755.97;;;10.27;62.37
8627;BME280;4351;51.422;6.794;2023-04-01T08:34:21;101725.59;;;10.21;63.66
8627;BME280;4351;51.422;6.794;2023-04-01T08:36:59;101715.22;;;10.33;63.87
8627;BME280;4351;51.422;6.794;2023-04-01T08:39:32;101671.19;;;10.11;66.13
8627;BME280;4351;51.422;6.794;2023-04-01T08:42:18;101668.97;;;10.21;66.33
8627;BME280;4351;51.422;6.794;2023-04-01T08:48:34;101636.94;;;10.34;67.78
8627;BME280;4351;51.422;6.794;2023-04-01T08:57:35;101570.72;;;10.27;71.41
8627;BME280;4351;51.422;6.794;2023-04-01T09:00:30;101562.44;;;10.32;71.97
8627;BME280;4351;51.422;6.794;2023-04-01T09:03:44;101547.53;;;10.23;73.21
8627;BME280;4351;51.422;6.794;2023-04-01T09:06:32;101553.53;;;10.30;73.65
8627;BME280;4351;51.422;6.794;2023-04-01T09:09:28;101555.94;;;10.57;72.01
8627;BME280;4351;51.422;6.794;2023-04-01T09:12:34;101469.63;;;10.17;77.43
8627;BME280;4351;51.422;6.794;2023-04-01T09:18:24;101489.91;;;10.26;77.88
8627;BME280;4351;51.422;6.794;2023-04-01T09:21:17;101488.22;;;10.23;78.86
8627;BME280;4351;51.422;6.794;2023-04-01T09:24:00;101503.25;;;10.29;78.83
8627;BME280;4351;51.422;6.794;2023-04-01T09:26:51;101532.97;;;10.27;78.70
8627;BME280;4351;51.422;6.794;2023-04-01T09:29:40;101601.38;;;10.45;77.83
8627;BME280;4351;51.422;6.794;2023-04-01T09:35:22;101648.75;;;10.53;76.73
8627;BME280;4351;51.422;6.794;2023-04-01T09:38:05;101654.28;;;10.50;77.27
8627;BME280;4351;51.422;6.794;2023-04-01T09:40:46;101660.47;;;10.52;76.99
8627;BME280;4351;51.422;6.794;2023-04-01T09:43:28;101673.03;;;10.53;75.90
8627;BME280;4351;51.422;6.794;2023-04-01T09:46:19;101650.88;;;10.44;77.36
8627;BME280;4351;51.422;6.794;2023-04-01T09:49:14;101676.69;;;10.90;74.86
8627;BME280;4351;51.422;6.794;2023-04-01T09:51:54;101634.31;;;10.92;75.92
8627;BME280;4351;51.422;6.794;2023-04-01T09:54:47;101559.72;;;10.72;79.90
8627;BME280;4351;51.422;6.794;2023-04-01T10:01:11;101494.59;;;10.61;85.32
8627;BME280;4351;51.422;6.794;2023-04-01T10:04:17;101477.50;;;10.60;86.70
8627;BME280;4351;51.422;6.794;2023-04-01T10:13:01;101563.78;;;10.81;86.30
8627;BME280;4351;51.422;6.794;2023-04-01T10:15:49;101525.72;;;10.68;87.97
8627;BME280;4351;51.422;6.794;2023-04-01T10:18:53;101518.91;;;10.78;87.99
8627;BME280;4351;51.422;6.794;2023-04-01T10:21:50;101468.00;;;10.53;92.49
8627;BME280;4351;51.422;6.794;2023-04-01T10:24:45;101450.38;;;10.63;93.22
8627;BME280;4351;51.422;6.794;2023-04-01T10:27:33;101420.22;;;10.55;94.81
8627;BME280;4351;51.422;6.794;2023-04-01T10:34:04;101453.22;;;10.60;96.34
8627;BME280;4351;51.422;6.794;2023-04-01T10:36:47;101424.81;;;10.53;98.40
8627;BME280;4351;51.422;6.794;2023-04-01T10:43:23;101461.50;;;10.57;96.55
8627;BME280;4351;51.422;6.794;2023-04-01T10:46:37;101504.56;;;10.58;95.87
8627;BME280;4351;51.422;6.794;2023-04-01T10:52:46;101575.81;;;10.74;93.09
8627;BME280;4351;51.422;6.794;2023-04-01T10:56:15;101583.53;;;10.62;93.63
8627;BME280;4351;51.422;6.794;2023-04-01T10:59:52;101590.28;;;10.73;92.84
8627;BME280;4351;51.422;6.794;2023-04-01T11:09:44;101568.94;;;10.66;96.27
8627;BME280;4351;51.422;6.794;2023-04-01T11:12:54;101578.09;;;10.64;95.70
8627;BME280;4351;51.422;6.794;2023-04-01T11:15:50;101591.50;;;10.65;95.30
8627;BME280;4351;51.422;6.794;2023-04-01T11:18:59;101636.28;;;10.69;94.22
8627;BME280;4351;51.422;6.794;2023-04-01T11:21:59;101656.28;;;10.65;94.99
8627;BME280;4351;51.422;6.794;2023-04-01T11:25:00;101682.56;;;10.60;96.57
8627;BME280;4351;51.422;6.794;2023-04-01T11:28:01;101711.72;;;10.73;95.09
8627;BME280;4351;51.422;6.794;2023-04-01T11:30:56;101736.88;;;10.73;93.79
8627;BME280;4351;51.422;6.794;2023-04-01T11:33:34;101719.28;;;10.64;94.97
8627;BME280;4351;51.422;6.794;2023-04-01T11:36:20;101717.31;;;10.68;94.79
8627;BME280;4351;51.422;6.794;2023-04-01T11:42:10;101753.94;;;10.74;94.34
8627;BME280;4351;51.422;6.794;2023-04-01T11:45:14;101769.94;;;10.78;93.93
8627;BME280;4351;51.422;6.794;2023-04-01T11:48:13;101784.19;;;10.61;99.40
8627;BME280;4351;51.422;6.794;2023-04-01T11:50:57;101828.50;;;10.55;99.67
8627;BME280;4351;51.422;6.794;2023-04-01T11:53:36;101841.78;;;10.60;100.00
8627;BME280;4351;51.422;6.794;2023-04-01T11:56:17;101876.81;;;10.83;100.00
8627;BME280;4351;51.422;6.794;2023-04-01T12:02:16;101869.00;;;10.76;100.00
8627;BME280;4351;51.422;6.794;2023-04-01T12:05:01;101861.38;;;10.65;100.00
8627;BME280;4351;51.422;6.794;2023-04-01T12:07:53;101872.84;;;10.71;100.00
8627;BME280;4351;51.422;6.794;2023-04-01T12:10:27;101872.97;;;10.67;100.00
8627;BME280;4351;51.422;6.794;2023-04-01T12:13:08;101887.63;;;10.83;100.00
8627;BME280;4351;51.422;6.794;2023-04-01T12:15:52;101859.81;;;10.80;100.00
8627;BME280;4351;51.422;6.794;2023-04-01T12:18:27;101855.44;;;10.78;100.00
8627;BME280;4351;51.422;6.794;2023-04-01T12:21:14;101831.38;;;10.92;100.00
8627;BME280;4351;51.422;6.794;2023-04-01T12:24:10;101796.75;;;11.02;100.00
8627;BME280;4351;51.422;6.794;2023-04-01T12:26:56;101755.25;;;11.05;100.00
8627;BME280;4351;51.422;6.794;2023-04-01T12:29:49;101718.09;;;11.10;100.00
8627;BME280;4351;51.422;6.794;2023-04-01T12:32:26;101701.53;;;10.99;100.00
8627;BME280;4351;51.422;6.794;2023-04-01T12:35:16;101668.53;;;11.11;100.00
8627;BME280;4351;51.422;6.794;2023-04-01T12:37:57;101628.16;;;11.08;100.00
8627;BME280;4351;51.422;6.794;2023-04-01T12:40:44;101587.81;;;11.05;100.00
8627;BME280;4351;51.422;6.794;2023-04-01T12:43:45;101575.47;;;11.19;100.00
8627;BME280;4351;51.422;6.794;2023-04-01T12:46:21;101561.44;;;11.10;100.00
8627;BME280;4351;51.422;6.794;2023-04-01T12:49:27;101524.75;;;11.06;100.00
8627;BME280;4351;51.422;6.794;2023-04-01T12:52:06;101502.69;;;10.98;100.00
8627;BME280;4351;51.422;6.794;2023-04-01T12:55:01;101489.63;;;10.88;100.00
8627;BME280;4351;51.422;6.794;2023-04-01T12:58:03;101454.16;;;10.78;100.00
8627;BME280;4351;51.422;6.794;2023-04-01T13:00:54;101464.31;;;10.91;100.00
8627;BME280;4351;51.422;6.794;2023-04-01T13:03:49;101486.44;;;10.80;100.00
8627;BME280;4351;51.422;6.794;2023-04-01T13:06:41;101510.22;;;10.91;100.00
8627;BME280;4351;51.422;6.794;2023-04-01T13:09:22;101527.78;;;11.00;100.00
8627;BME280;4351;51.422;6.794;2023-04-01T13:12:13;101521.88;;;10.91;100.00
8627;BME280;4351;51.422;6.794;2023-04-01T13:14:59;101511.97;;;10.92;100.00
8627;BME280;4351;51.422;6.794;2023-04-01T13:17:37;101491.97;;;10.96;100.00
8627;BME280;4351;51.422;6.794;2023-04-01T13:20:16;101477.44;;;10.99;100.00
8627;BME280;4351;51.422;6.794;2023-04-01T13:22:55;101454.22;;;10.77;100.00
8627;BME280;4351;51.422;6.794;2023-04-01T13:25:31;101488.69;;;10.89;100.00
8627;BME280;4351;51.422;6.794;2023-04-01T13:28:12;101493.00;;;10.94;100.00
8627;BME280;4351;51.422;6.794;2023-04-01T13:30:46;101503.94;;;10.90;100.00
8627;BME280;4351;51.422;6.794;2023-04-01T13:33:23;101491.72;;;10.83;100.00
8627;BME280;4351;51.422;6.794;2023-04-01T13:37:24;101514.31;;;10.80;100.00
8627;BME280;4351;51.422;6.794;2023-04-01T13:39:59;101531.41;;;10.81;100.00
8627;BME280;4351;51.422;6.794;2023-04-01T13:42:33;101553.56;;;10.88;100.00
8627;BME280;4351;51.422;6.794;2023-04-01T13:45:14;101566.00;;;10.90;100.00
8627;BME280;4351;51.422;6.794;2023-04-01T13:48:04;101583.75;;;10.96;100.00
8627;BME280;4351;51.422;6.794;2023-04-01T13:50:52;101569.47;;;10.94;100.00
8627;BME280;4351;51.422;6.794;2023-04-01T13:53:46;101595.66;;;10.92;100.00
8627;BME280;4351;51.422;6.794;2023-04-01T13:56:34;101587.41;;;10.76;100.00
8627;BME280;4351;51.422;6.794;2023-04-01T13:59:19;101620.50;;;10.79;100.00
8627;BME280;4351;51.422;6.794;2023-04-01T14:01:56;101621.03;;;10.68;100.00
8627;BME280;4351;51.422;6.794;2023-04-01T14:04:38;101655.56;;;10.81;100.00
8627;BME280;4351;51.422;6.794;2023-04-01T14:07:31;101672.84;;;10.77;100.00
8627;BME280;4351;51.422;6.794;2023-04-01T14:10:19;101685.47;;;10.76;100.00
8627;BME280;4351;51.422;6.794;2023-04-01T14:12:57;101726.81;;;10.77;100.00
8627;BME280;4351;51.422;6.794;2023-04-01T14:15:41;101750.16;;;10.78;100.00
8627;BME280;4351;51.422;6.794;2023-04-01T14:18:21;101777.94;;;10.80;100.00
8627;BME280;4351;51.422;6.794;2023-04-01T14:21:01;101812.13;;;10.81;100.00
8627;BME280;4351;51.422;6.794;2023-04-01T14:23:48;101828.31;;;10.81;100.00
8627;BME280;4351;51.422;6.794;2023-04-01T14:26:50;101821.56;;;10.71;100.00
8627;BME280;4351;51.422;6.794;2023-04-01T14:29:29;101851.03;;;10.75;100.00
8627;BME280;4351;51.422;6.794;2023-04-01T14:32:07;101867.44;;;10.91;100.00
8627;BME280;4351;51.422;6.794;2023-04-01T14:34:59;101836.94;;;10.89;100.00
8627;BME280;4351;51.422;6.794;2023-04-01T14:40:27;101820.13;;;10.83;100.00
8627;BME280;4351;51.422;6.794;2023-04-01T14:43:18;101853.88;;;10.93;100.00
8627;BME280;4351;51.422;6.794;2023-04-01T14:46:09;101849.75;;;10.84;100.00
8627;BME280;4351;51.422;6.794;2023-04-01T14:48:50;101851.00;;;10.77;100.00
8627;BME280;4351;51.422;6.794;2023-04-01T14:51:23;101869.19;;;10.72;100.00
8627;BME280;4351;51.422;6.794;2023-04-01T14:54:02;101879.91;;;10.73;100.00
8627;BME280;4351;51.422;6.794;2023-04-01T14:56:39;101892.09;;;10.84;100.00
8627;BME280;4351;51.422;6.794;2023-04-01T14:59:14;101891.59;;;10.74;100.00
8627;BME280;4351;51.422;6.794;2023-04-01T15:01:49;101899.75;;;10.72;100.00
8627;BME280;4351;51.422;6.794;2023-04-01T15:04:32;101886.06;;;10.77;100.00
8627;BME280;4351;51.422;6.794;2023-04-01T15:07:35;101911.31;;;10.76;100.00
8627;BME280;4351;51.422;6.794;2023-04-01T15:10:12;101930.72;;;10.84;100.00
8627;BME280;4351;51.422;6.794;2023-04-01T15:12:52;101925.75;;;10.75;100.00
8627;BME280;4351;51.422;6.794;2023-04-01T15:15:34;101944.75;;;10.72;100.00
8627;BME280;4351;51.422;6.794;2023-04-01T15:18:09;101966.09;;;10.78;100.00
8627;BME280;4351;51.422;6.794;2023-04-01T15:23:36;101974.19;;;10.78;100.00
8627;BME280;4351;51.422;6.794;2023-04-01T15:26:21;101988.13;;;10.89;100.00